sensor_id;sensor_type;location;lat;lon;timestamp;P1;durP1;ratioP1;P2;durP2;ratioP2
72275;SDS011;61204;49.980;8.358;2022-07-09T00:01:18;2.35;;;1.05;;
72275;SDS011;61204;49.980;8.358;2022-07-09T00:03:44;1.95;;;1.05;;
72275;SDS011;61204;49.980;8.358;2022-07-09T00:06:10;2.13;;;1.05;;
72275;SDS011;61204;49.980;8.358;2022-07-09T00:08:35;2.78;;;1.00;;
72275;SDS011;61204;49.980;8.358;2022-07-09T00:11:01;1.95;;;1.10;;
72275;SDS011;61204;49.980;8.358;2022-07-09T00:13:26;2.63;;;1.00;;
72275;SDS011;61204;49.980;8.358;2022-07-09T00:15:52;2.80;;;0.90;;
72275;SDS011;61204;49.980;8.358;2022-07-09T00:18:18;2.22;;;0.90;;
72275;SDS011;61204;49.980;8.358;2022-07-09T00:20:44;5.30;;;0.90;;
72275;SDS011;61204;49.980;8.358;2022-07-09T00:23:10;2.50;;;0.90;;
72275;SDS011;61204;49.980;8.358;2022-07-09T00:25:35;1.25;;;0.70;;
72275;SDS011;61204;49.980;8.358;2022-07-09T00:28:01;1.58;;;0.80;;
72275;SDS011;61204;49.980;8.358;2022-07-09T00:30:26;1.50;;;0.90;;
72275;SDS011;61204;49.980;8.358;2022-07-09T00:32:52;1.73;;;0.93;;
72275;SDS011;61204;49.980;8.358;2022-07-09T00:35:18;1.60;;;1.10;;
72275;SDS011;61204;49.980;8.358;2022-07-09T00:37:44;1.92;;;0.70;;
72275;SDS011;61204;49.980;8.358;2022-07-09T00:40:10;2.75;;;1.08;;
72275;SDS011;61204;49.980;8.358;2022-07-09T00:42:36;1.98;;;1.08;;
72275;SDS011;61204;49.980;8.358;2022-07-09T00:45:02;3.38;;;0.82;;
72275;SDS011;61204;49.980;8.358;2022-07-09T00:47:28;2.75;;;0.93;;
72275;SDS011;61204;49.980;8.358;2022-07-09T00:49:53;3.72;;;0.95;;
72275;SDS011;61204;49.980;8.358;2022-07-09T00:52:19;2.47;;;0.90;;
72275;SDS011;61204;49.980;8.358;2022-07-09T00:54:46;1.75;;;0.80;;
72275;SDS011;61204;49.980;8.358;2022-07-09T00:57:12;1.52;;;0.80;;
72275;SDS011;61204;49.980;8.358;2022-07-09T00:59:38;2.63;;;1.00;;
72275;SDS011;61204;49.980;8.358;2022-07-09T01:02:06;3.33;;;1.33;;
72275;SDS011;61204;49.980;8.358;2022-07-09T01:04:34;3.03;;;1.23;;
72275;SDS011;61204;49.980;8.358;2022-07-09T01:07:01;1.20;;;0.95;;
72275;SDS011;61204;49.980;8.358;2022-07-09T01:09:28;2.10;;;1.08;;
72275;SDS011;61204;49.980;8.358;2022-07-09T01:11:57;1.83;;;0.90;;
72275;SDS011;61204;49.980;8.358;2022-07-09T01:14:23;2.75;;;1.38;;
72275;SDS011;61204;49.980;8.358;2022-07-09T01:16:56;1.30;;;0.80;;
72275;SDS011;61204;49.980;8.358;2022-07-09T01:19:28;2.55;;;1.00;;
72275;SDS011;61204;49.980;8.358;2022-07-09T01:21:56;1.70;;;0.88;;
72275;SDS011;61204;49.980;8.358;2022-07-09T01:24:24;1.95;;;1.10;;
72275;SDS011;61204;49.980;8.358;2022-07-09T01:26:51;2.03;;;0.80;;
72275;SDS011;61204;49.980;8.358;2022-07-09T01:29:19;1.20;;;0.85;;
72275;SDS011;61204;49.980;8.358;2022-07-09T01:31:48;2.75;;;1.05;;
72275;SDS011;61204;49.980;8.358;2022-07-09T01:34:14;2.72;;;1.13;;
72275;SDS011;61204;49.980;8.358;2022-07-09T01:36:39;2.30;;;1.02;;
72275;SDS011;61204;49.980;8.358;2022-07-09T01:39:05;2.08;;;0.80;;
72275;SDS011;61204;49.980;8.358;2022-07-09T01:41:31;2.65;;;0.82;;
72275;SDS011;61204;49.980;8.358;2022-07-09T01:43:57;1.30;;;0.70;;
72275;SDS011;61204;49.980;8.358;2022-07-09T01:46:23;2.08;;;0.90;;
72275;SDS011;61204;49.980;8.358;2022-07-09T01:48:48;2.78;;;1.00;;
72275;SDS011;61204;49.980;8.358;2022-07-09T01:51:14;1.98;;;0.80;;
72275;SDS011;61204;49.980;8.358;2022-07-09T01:53:40;2.97;;;0.90;;
72275;SDS011;61204;49.980;8.358;2022-07-09T01:56:08;2.50;;;1.20;;
72275;SDS011;61204;49.980;8.358;2022-07-09T01:58:36;2.22;;;0.88;;
72275;SDS011;61204;49.980;8.358;2022-07-09T02:01:02;2.42;;;1.00;;
72275;SDS011;61204;49.980;8.358;2022-07-09T02:03:31;1.73;;;1.00;;
72275;SDS011;61204;49.980;8.358;2022-07-09T02:05:57;1.13;;;0.55;;
72275;SDS011;61204;49.980;8.358;2022-07-09T02:08:22;2.08;;;0.95;;
72275;SDS011;61204;49.980;8.358;2022-07-09T02:10:51;1.60;;;0.93;;
72275;SDS011;61204;49.980;8.358;2022-07-09T02:13:17;1.85;;;0.90;;
72275;SDS011;61204;49.980;8.358;2022-07-09T02:15:46;1.95;;;1.02;;
72275;SDS011;61204;49.980;8.358;2022-07-09T02:18:12;2.03;;;0.88;;
72275;SDS011;61204;49.980;8.358;2022-07-09T02:20:37;2.50;;;1.00;;
72275;SDS011;61204;49.980;8.358;2022-07-09T02:23:03;1.30;;;0.75;;
72275;SDS011;61204;49.980;8.358;2022-07-09T02:25:29;1.80;;;0.90;;
72275;SDS011;61204;49.980;8.358;2022-07-09T02:27:54;1.40;;;0.70;;
72275;SDS011;61204;49.980;8.358;2022-07-09T02:30:20;1.42;;;0.90;;
72275;SDS011;61204;49.980;8.358;2022-07-09T02:32:46;1.17;;;0.70;;
72275;SDS011;61204;49.980;8.358;2022-07-09T02:35:11;2.03;;;1.00;;
72275;SDS011;61204;49.980;8.358;2022-07-09T02:37:37;2.03;;;1.13;;
72275;SDS011;61204;49.980;8.358;2022-07-09T02:40:03;4.15;;;0.93;;
72275;SDS011;61204;49.980;8.358;2022-07-09T02:42:31;2.80;;;1.00;;
72275;SDS011;61204;49.980;8.358;2022-07-09T02:44:56;2.28;;;1.05;;
72275;SDS011;61204;49.980;8.358;2022-07-09T02:47:22;2.60;;;0.90;;
72275;SDS011;61204;49.980;8.358;2022-07-09T02:49:47;1.80;;;0.93;;
72275;SDS011;61204;49.980;8.358;2022-07-09T02:52:13;1.50;;;1.05;;
72275;SDS011;61204;49.980;8.358;2022-07-09T02:54:38;1.73;;;0.90;;
72275;SDS011;61204;49.980;8.358;2022-07-09T02:57:04;1.67;;;1.02;;
72275;SDS011;61204;49.980;8.358;2022-07-09T02:59:30;3.30;;;0.93;;
72275;SDS011;61204;49.980;8.358;2022-07-09T03:01:58;1.10;;;0.70;;
72275;SDS011;61204;49.980;8.358;2022-07-09T03:04:23;1.38;;;0.95;;
72275;SDS011;61204;49.980;8.358;2022-07-09T03:06:49;1.33;;;0.70;;
72275;SDS011;61204;49.980;8.358;2022-07-09T03:09:14;1.88;;;1.10;;
72275;SDS011;61204;49.980;8.358;2022-07-09T03:11:40;1.80;;;1.20;;
72275;SDS011;61204;49.980;8.358;2022-07-09T03:14:05;2.22;;;1.00;;
72275;SDS011;61204;49.980;8.358;2022-07-09T03:16:31;2.08;;;1.25;;
72275;SDS011;61204;49.980;8.358;2022-07-09T03:18:57;1.73;;;1.20;;
72275;SDS011;61204;49.980;8.358;2022-07-09T03:21:22;3.55;;;1.00;;
72275;SDS011;61204;49.980;8.358;2022-07-09T03:23:48;1.50;;;1.17;;
72275;SDS011;61204;49.980;8.358;2022-07-09T03:26:15;3.33;;;1.13;;
72275;SDS011;61204;49.980;8.358;2022-07-09T03:28:41;3.10;;;1.50;;
72275;SDS011;61204;49.980;8.358;2022-07-09T03:31:06;4.78;;;1.25;;
72275;SDS011;61204;49.980;8.358;2022-07-09T03:33:32;2.20;;;1.10;;
72275;SDS011;61204;49.980;8.358;2022-07-09T03:35:58;2.22;;;1.30;;
72275;SDS011;61204;49.980;8.358;2022-07-09T03:38:23;1.60;;;1.20;;
72275;SDS011;61204;49.980;8.358;2022-07-09T03:40:49;2.55;;;1.27;;
72275;SDS011;61204;49.980;8.358;2022-07-09T03:43:16;2.33;;;1.27;;
72275;SDS011;61204;49.980;8.358;2022-07-09T03:45:42;3.72;;;1.23;;
72275;SDS011;61204;49.980;8.358;2022-07-09T03:48:07;2.22;;;1.00;;
72275;SDS011;61204;49.980;8.358;2022-07-09T03:50:33;1.63;;;1.02;;
72275;SDS011;61204;49.980;8.358;2022-07-09T03:52:59;2.88;;;1.98;;
72275;SDS011;61204;49.980;8.358;2022-07-09T03:55:24;2.40;;;1.40;;
72275;SDS011;61204;49.980;8.358;2022-07-09T03:57:50;2.08;;;1.40;;
72275;SDS011;61204;49.980;8.358;2022-07-09T04:00:16;4.05;;;1.52;;
72275;SDS011;61204;49.980;8.358;2022-07-09T04:02:41;2.85;;;1.10;;
72275;SDS011;61204;49.980;8.358;2022-07-09T04:05:07;2.90;;;1.60;;
72275;SDS011;61204;49.980;8.358;2022-07-09T04:07:34;3.45;;;1.73;;
72275;SDS011;61204;49.980;8.358;2022-07-09T04:10:01;2.90;;;1.65;;
72275;SDS011;61204;49.980;8.358;2022-07-09T04:12:28;2.53;;;1.60;;
72275;SDS011;61204;49.980;8.358;2022-07-09T04:14:53;2.35;;;1.55;;
72275;SDS011;61204;49.980;8.358;2022-07-09T04:17:19;4.43;;;1.85;;
72275;SDS011;61204;49.980;8.358;2022-07-09T04:19:44;3.33;;;1.60;;
72275;SDS011;61204;49.980;8.358;2022-07-09T04:22:10;3.03;;;1.92;;
72275;SDS011;61204;49.980;8.358;2022-07-09T04:24:35;4.03;;;1.92;;
72275;SDS011;61204;49.980;8.358;2022-07-09T04:27:01;4.95;;;1.90;;
72275;SDS011;61204;49.980;8.358;2022-07-09T04:29:27;2.65;;;1.83;;
72275;SDS011;61204;49.980;8.358;2022-07-09T04:31:52;4.90;;;1.80;;
72275;SDS011;61204;49.980;8.358;2022-07-09T04:34:18;4.65;;;1.65;;
72275;SDS011;61204;49.980;8.358;2022-07-09T04:36:43;4.82;;;2.50;;
72275;SDS011;61204;49.980;8.358;2022-07-09T04:39:09;5.20;;;2.42;;
72275;SDS011;61204;49.980;8.358;2022-07-09T04:41:35;3.53;;;2.50;;
72275;SDS011;61204;49.980;8.358;2022-07-09T04:44:01;4.47;;;2.00;;
72275;SDS011;61204;49.980;8.358;2022-07-09T04:46:28;3.88;;;1.80;;
72275;SDS011;61204;49.980;8.358;2022-07-09T04:48:55;2.97;;;1.92;;
72275;SDS011;61204;49.980;8.358;2022-07-09T04:51:21;2.20;;;1.73;;
72275;SDS011;61204;49.980;8.358;2022-07-09T04:53:47;3.45;;;1.63;;
72275;SDS011;61204;49.980;8.358;2022-07-09T04:56:12;3.33;;;1.70;;
72275;SDS011;61204;49.980;8.358;2022-07-09T04:58:38;4.53;;;2.10;;
72275;SDS011;61204;49.980;8.358;2022-07-09T05:01:16;4.75;;;1.95;;
72275;SDS011;61204;49.980;8.358;2022-07-09T05:03:46;4.22;;;1.48;;
72275;SDS011;61204;49.980;8.358;2022-07-09T05:06:14;3.35;;;1.70;;
72275;SDS011;61204;49.980;8.358;2022-07-09T05:08:44;4.47;;;2.15;;
72275;SDS011;61204;49.980;8.358;2022-07-09T05:11:12;3.90;;;1.92;;
72275;SDS011;61204;49.980;8.358;2022-07-09T05:13:38;6.15;;;2.00;;
72275;SDS011;61204;49.980;8.358;2022-07-09T05:16:07;2.65;;;1.40;;
72275;SDS011;61204;49.980;8.358;2022-07-09T05:18:34;4.30;;;1.95;;
72275;SDS011;61204;49.980;8.358;2022-07-09T05:21:00;5.85;;;2.03;;
72275;SDS011;61204;49.980;8.358;2022-07-09T05:23:26;3.45;;;1.90;;
72275;SDS011;61204;49.980;8.358;2022-07-09T05:25:52;5.05;;;2.03;;
72275;SDS011;61204;49.980;8.358;2022-07-09T05:28:18;3.72;;;1.85;;
72275;SDS011;61204;49.980;8.358;2022-07-09T05:30:44;3.85;;;1.80;;
72275;SDS011;61204;49.980;8.358;2022-07-09T05:33:10;3.78;;;2.13;;
72275;SDS011;61204;49.980;8.358;2022-07-09T05:35:35;4.97;;;2.22;;
72275;SDS011;61204;49.980;8.358;2022-07-09T05:38:01;2.17;;;1.60;;
72275;SDS011;61204;49.980;8.358;2022-07-09T05:40:29;3.05;;;1.60;;
72275;SDS011;61204;49.980;8.358;2022-07-09T05:42:55;3.92;;;1.88;;
72275;SDS011;61204;49.980;8.358;2022-07-09T05:45:21;3.72;;;1.80;;
72275;SDS011;61204;49.980;8.358;2022-07-09T05:47:46;3.65;;;1.70;;
72275;SDS011;61204;49.980;8.358;2022-07-09T05:50:12;5.45;;;1.65;;
72275;SDS011;61204;49.980;8.358;2022-07-09T05:52:37;2.97;;;1.73;;
72275;SDS011;61204;49.980;8.358;2022-07-09T05:55:03;2.53;;;1.80;;
72275;SDS011;61204;49.980;8.358;2022-07-09T05:57:30;3.25;;;1.60;;
72275;SDS011;61204;49.980;8.358;2022-07-09T05:59:56;4.90;;;2.22;;
72275;SDS011;61204;49.980;8.358;2022-07-09T06:02:22;3.42;;;1.67;;
72275;SDS011;61204;49.980;8.358;2022-07-09T06:04:48;5.78;;;1.75;;
72275;SDS011;61204;49.980;8.358;2022-07-09T06:07:14;3.80;;;2.05;;
72275;SDS011;61204;49.980;8.358;2022-07-09T06:09:40;5.90;;;1.77;;
72275;SDS011;61204;49.980;8.358;2022-07-09T06:12:06;5.22;;;1.75;;
72275;SDS011;61204;49.980;8.358;2022-07-09T06:14:33;4.28;;;2.13;;
72275;SDS011;61204;49.980;8.358;2022-07-09T06:16:59;3.55;;;1.75;;
72275;SDS011;61204;49.980;8.358;2022-07-09T06:19:30;3.00;;;1.80;;
72275;SDS011;61204;49.980;8.358;2022-07-09T06:22:01;3.13;;;1.48;;
72275;SDS011;61204;49.980;8.358;2022-07-09T06:24:30;3.33;;;1.50;;
72275;SDS011;61204;49.980;8.358;2022-07-09T06:26:56;4.82;;;1.38;;
72275;SDS011;61204;49.980;8.358;2022-07-09T06:29:22;4.72;;;2.00;;
72275;SDS011;61204;49.980;8.358;2022-07-09T06:31:48;3.28;;;2.13;;
72275;SDS011;61204;49.980;8.358;2022-07-09T06:34:14;2.65;;;1.90;;
72275;SDS011;61204;49.980;8.358;2022-07-09T06:36:39;5.25;;;2.42;;
72275;SDS011;61204;49.980;8.358;2022-07-09T06:39:09;4.05;;;2.20;;
72275;SDS011;61204;49.980;8.358;2022-07-09T06:42:17;5.05;;;1.98;;
72275;SDS011;61204;49.980;8.358;2022-07-09T06:44:43;4.70;;;2.10;;
72275;SDS011;61204;49.980;8.358;2022-07-09T06:47:09;4.72;;;2.17;;
72275;SDS011;61204;49.980;8.358;2022-07-09T06:49:37;4.13;;;2.03;;
72275;SDS011;61204;49.980;8.358;2022-07-09T06:52:03;5.63;;;2.38;;
72275;SDS011;61204;49.980;8.358;2022-07-09T06:54:30;6.60;;;1.85;;
72275;SDS011;61204;49.980;8.358;2022-07-09T06:56:56;3.92;;;1.95;;
72275;SDS011;61204;49.980;8.358;2022-07-09T06:59:24;5.90;;;2.13;;
72275;SDS011;61204;49.980;8.358;2022-07-09T07:01:52;5.60;;;1.83;;
72275;SDS011;61204;49.980;8.358;2022-07-09T07:04:18;6.93;;;1.95;;
72275;SDS011;61204;49.980;8.358;2022-07-09T07:06:45;5.30;;;2.15;;
72275;SDS011;61204;49.980;8.358;2022-07-09T07:09:14;5.82;;;2.42;;
72275;SDS011;61204;49.980;8.358;2022-07-09T07:11:46;5.30;;;2.17;;
72275;SDS011;61204;49.980;8.358;2022-07-09T07:14:16;4.97;;;1.88;;
72275;SDS011;61204;49.980;8.358;2022-07-09T07:16:42;5.82;;;1.90;;
72275;SDS011;61204;49.980;8.358;2022-07-09T07:19:09;5.72;;;1.85;;
72275;SDS011;61204;49.980;8.358;2022-07-09T07:21:36;4.00;;;1.48;;
72275;SDS011;61204;49.980;8.358;2022-07-09T07:24:06;4.13;;;1.92;;
72275;SDS011;61204;49.980;8.358;2022-07-09T07:26:32;4.20;;;2.00;;
72275;SDS011;61204;49.980;8.358;2022-07-09T07:28:59;4.95;;;2.17;;
72275;SDS011;61204;49.980;8.358;2022-07-09T07:31:26;3.45;;;2.10;;
72275;SDS011;61204;49.980;8.358;2022-07-09T07:33:51;6.65;;;2.30;;
72275;SDS011;61204;49.980;8.358;2022-07-09T07:36:20;5.15;;;2.03;;
72275;SDS011;61204;49.980;8.358;2022-07-09T07:38:46;6.55;;;2.80;;
72275;SDS011;61204;49.980;8.358;2022-07-09T07:41:12;6.45;;;2.17;;
72275;SDS011;61204;49.980;8.358;2022-07-09T07:43:38;8.32;;;2.65;;
72275;SDS011;61204;49.980;8.358;2022-07-09T07:46:07;5.40;;;2.33;;
72275;SDS011;61204;49.980;8.358;2022-07-09T07:48:32;6.13;;;2.50;;
72275;SDS011;61204;49.980;8.358;2022-07-09T07:51:00;11.98;;;2.55;;
72275;SDS011;61204;49.980;8.358;2022-07-09T07:53:27;3.75;;;2.10;;
72275;SDS011;61204;49.980;8.358;2022-07-09T07:55:56;5.68;;;3.40;;
72275;SDS011;61204;49.980;8.358;2022-07-09T07:58:22;9.43;;;2.70;;
72275;SDS011;61204;49.980;8.358;2022-07-09T08:00:48;9.15;;;2.75;;
72275;SDS011;61204;49.980;8.358;2022-07-09T08:03:13;4.65;;;2.70;;
72275;SDS011;61204;49.980;8.358;2022-07-09T08:05:39;8.05;;;2.50;;
72275;SDS011;61204;49.980;8.358;2022-07-09T08:08:04;5.10;;;2.72;;
72275;SDS011;61204;49.980;8.358;2022-07-09T08:10:30;5.20;;;2.53;;
72275;SDS011;61204;49.980;8.358;2022-07-09T08:12:56;6.10;;;2.65;;
72275;SDS011;61204;49.980;8.358;2022-07-09T08:15:21;6.07;;;2.25;;
72275;SDS011;61204;49.980;8.358;2022-07-09T08:17:47;7.43;;;2.30;;
72275;SDS011;61204;49.980;8.358;2022-07-09T08:20:12;6.07;;;2.25;;
72275;SDS011;61204;49.980;8.358;2022-07-09T08:22:38;6.68;;;2.60;;
72275;SDS011;61204;49.980;8.358;2022-07-09T08:25:03;6.22;;;2.55;;
72275;SDS011;61204;49.980;8.358;2022-07-09T08:27:30;6.18;;;2.05;;
72275;SDS011;61204;49.980;8.358;2022-07-09T08:29:55;4.45;;;2.58;;
72275;SDS011;61204;49.980;8.358;2022-07-09T08:32:21;7.55;;;2.25;;
72275;SDS011;61204;49.980;8.358;2022-07-09T08:34:46;4.57;;;2.05;;
72275;SDS011;61204;49.980;8.358;2022-07-09T08:37:12;6.03;;;2.38;;
72275;SDS011;61204;49.980;8.358;2022-07-09T08:39:38;5.40;;;2.00;;
72275;SDS011;61204;49.980;8.358;2022-07-09T08:42:05;5.38;;;2.15;;
72275;SDS011;61204;49.980;8.358;2022-07-09T08:44:40;4.20;;;1.87;;
72275;SDS011;61204;49.980;8.358;2022-07-09T08:47:14;3.92;;;1.67;;
72275;SDS011;61204;49.980;8.358;2022-07-09T08:49:41;4.45;;;1.75;;
72275;SDS011;61204;49.980;8.358;2022-07-09T08:52:11;4.78;;;1.65;;
72275;SDS011;61204;49.980;8.358;2022-07-09T08:54:40;10.93;;;2.10;;
72275;SDS011;61204;49.980;8.358;2022-07-09T08:57:08;17.10;;;1.90;;
72275;SDS011;61204;49.980;8.358;2022-07-09T08:59:33;3.03;;;1.67;;
72275;SDS011;61204;49.980;8.358;2022-07-09T09:02:06;2.20;;;1.70;;
72275;SDS011;61204;49.980;8.358;2022-07-09T09:04:37;6.40;;;2.20;;
72275;SDS011;61204;49.980;8.358;2022-07-09T09:07:12;3.38;;;1.90;;
72275;SDS011;61204;49.980;8.358;2022-07-09T09:09:43;4.43;;;2.50;;
72275;SDS011;61204;49.980;8.358;2022-07-09T09:12:10;4.75;;;1.90;;
72275;SDS011;61204;49.980;8.358;2022-07-09T09:14:38;3.60;;;1.95;;
72275;SDS011;61204;49.980;8.358;2022-07-09T09:17:15;5.40;;;1.40;;
72275;SDS011;61204;49.980;8.358;2022-07-09T09:19:41;3.78;;;1.38;;
72275;SDS011;61204;49.980;8.358;2022-07-09T09:22:07;2.80;;;1.50;;
72275;SDS011;61204;49.980;8.358;2022-07-09T09:24:34;2.45;;;1.05;;
72275;SDS011;61204;49.980;8.358;2022-07-09T09:27:00;4.72;;;1.45;;
72275;SDS011;61204;49.980;8.358;2022-07-09T09:29:27;3.08;;;1.27;;
72275;SDS011;61204;49.980;8.358;2022-07-09T09:31:54;2.67;;;1.25;;
72275;SDS011;61204;49.980;8.358;2022-07-09T09:34:23;3.03;;;1.30;;
72275;SDS011;61204;49.980;8.358;2022-07-09T09:36:50;2.50;;;1.63;;
72275;SDS011;61204;49.980;8.358;2022-07-09T09:39:25;5.45;;;1.90;;
72275;SDS011;61204;49.980;8.358;2022-07-09T09:41:59;2.13;;;1.20;;
72275;SDS011;61204;49.980;8.358;2022-07-09T09:44:31;4.40;;;1.35;;
72275;SDS011;61204;49.980;8.358;2022-07-09T09:47:06;3.25;;;1.25;;
72275;SDS011;61204;49.980;8.358;2022-07-09T09:49:34;3.35;;;1.45;;
72275;SDS011;61204;49.980;8.358;2022-07-09T09:52:09;5.85;;;1.52;;
72275;SDS011;61204;49.980;8.358;2022-07-09T09:54:36;4.25;;;1.60;;
72275;SDS011;61204;49.980;8.358;2022-07-09T09:57:05;8.82;;;1.88;;
72275;SDS011;61204;49.980;8.358;2022-07-09T09:59:39;4.55;;;1.42;;
72275;SDS011;61204;49.980;8.358;2022-07-09T10:02:08;4.32;;;1.20;;
72275;SDS011;61204;49.980;8.358;2022-07-09T10:04:41;3.55;;;1.00;;
72275;SDS011;61204;49.980;8.358;2022-07-09T10:07:13;5.28;;;1.05;;
72275;SDS011;61204;49.980;8.358;2022-07-09T10:09:40;3.38;;;1.02;;
72275;SDS011;61204;49.980;8.358;2022-07-09T10:12:06;3.38;;;1.10;;
72275;SDS011;61204;49.980;8.358;2022-07-09T10:14:39;2.25;;;0.90;;
72275;SDS011;61204;49.980;8.358;2022-07-09T10:17:11;2.20;;;0.80;;
72275;SDS011;61204;49.980;8.358;2022-07-09T10:22:35;1.63;;;0.80;;
72275;SDS011;61204;49.980;8.358;2022-07-09T10:25:02;3.67;;;0.80;;
72275;SDS011;61204;49.980;8.358;2022-07-09T10:27:42;3.72;;;0.90;;
72275;SDS011;61204;49.980;8.358;2022-07-09T10:30:27;3.08;;;0.98;;
72275;SDS011;61204;49.980;8.358;2022-07-09T10:33:07;1.92;;;1.08;;
72275;SDS011;61204;49.980;8.358;2022-07-09T10:35:42;2.88;;;1.45;;
72275;SDS011;61204;49.980;8.358;2022-07-09T10:38:16;1.42;;;1.00;;
72275;SDS011;61204;49.980;8.358;2022-07-09T10:40:56;2.03;;;1.00;;
72275;SDS011;61204;49.980;8.358;2022-07-09T10:43:40;2.63;;;1.15;;
72275;SDS011;61204;49.980;8.358;2022-07-09T10:46:16;2.47;;;1.40;;
72275;SDS011;61204;49.980;8.358;2022-07-09T10:48:43;2.72;;;1.20;;
72275;SDS011;61204;49.980;8.358;2022-07-09T10:51:17;1.85;;;1.00;;
72275;SDS011;61204;49.980;8.358;2022-07-09T10:53:45;3.05;;;1.55;;
72275;SDS011;61204;49.980;8.358;2022-07-09T10:56:16;3.92;;;1.35;;
72275;SDS011;61204;49.980;8.358;2022-07-09T10:58:46;1.95;;;1.10;;
72275;SDS011;61204;49.980;8.358;2022-07-09T11:01:21;1.77;;;1.08;;
72275;SDS011;61204;49.980;8.358;2022-07-09T11:03:51;2.13;;;1.17;;
72275;SDS011;61204;49.980;8.358;2022-07-09T11:06:18;1.95;;;1.02;;
72275;SDS011;61204;49.980;8.358;2022-07-09T11:08:44;1.80;;;1.20;;
72275;SDS011;61204;49.980;8.358;2022-07-09T11:11:10;2.35;;;1.60;;
72275;SDS011;61204;49.980;8.358;2022-07-09T11:13:35;2.22;;;1.30;;
72275;SDS011;61204;49.980;8.358;2022-07-09T11:16:01;2.08;;;1.30;;
72275;SDS011;61204;49.980;8.358;2022-07-09T11:18:28;2.30;;;1.38;;
72275;SDS011;61204;49.980;8.358;2022-07-09T11:20:54;2.58;;;1.30;;
72275;SDS011;61204;49.980;8.358;2022-07-09T11:23:20;1.50;;;1.17;;
72275;SDS011;61204;49.980;8.358;2022-07-09T11:25:46;2.63;;;1.23;;
72275;SDS011;61204;49.980;8.358;2022-07-09T11:31:01;1.65;;;1.30;;
72275;SDS011;61204;49.980;8.358;2022-07-09T11:33:31;2.60;;;0.93;;
72275;SDS011;61204;49.980;8.358;2022-07-09T11:36:17;1.92;;;1.15;;
72275;SDS011;61204;49.980;8.358;2022-07-09T11:38:51;2.88;;;1.10;;
72275;SDS011;61204;49.980;8.358;2022-07-09T11:41:18;3.42;;;1.42;;
72275;SDS011;61204;49.980;8.358;2022-07-09T11:43:48;2.65;;;1.17;;
72275;SDS011;61204;49.980;8.358;2022-07-09T11:46:17;4.10;;;1.42;;
72275;SDS011;61204;49.980;8.358;2022-07-09T11:48:48;2.03;;;1.00;;
72275;SDS011;61204;49.980;8.358;2022-07-09T11:51:31;1.77;;;0.98;;
72275;SDS011;61204;49.980;8.358;2022-07-09T11:53:58;2.15;;;1.30;;
72275;SDS011;61204;49.980;8.358;2022-07-09T11:56:26;1.88;;;1.08;;
72275;SDS011;61204;49.980;8.358;2022-07-09T11:58:52;3.13;;;1.50;;
72275;SDS011;61204;49.980;8.358;2022-07-09T12:01:19;2.75;;;1.45;;
72275;SDS011;61204;49.980;8.358;2022-07-09T12:03:51;2.45;;;1.30;;
72275;SDS011;61204;49.980;8.358;2022-07-09T12:06:17;2.13;;;1.13;;
72275;SDS011;61204;49.980;8.358;2022-07-09T12:08:43;3.45;;;1.20;;
72275;SDS011;61204;49.980;8.358;2022-07-09T12:11:08;1.40;;;0.93;;
72275;SDS011;61204;49.980;8.358;2022-07-09T12:13:34;2.85;;;1.10;;
72275;SDS011;61204;49.980;8.358;2022-07-09T12:15:59;1.67;;;1.10;;
72275;SDS011;61204;49.980;8.358;2022-07-09T12:18:25;1.70;;;1.17;;
72275;SDS011;61204;49.980;8.358;2022-07-09T12:20:53;1.73;;;1.13;;
72275;SDS011;61204;49.980;8.358;2022-07-09T12:23:19;3.40;;;1.10;;
72275;SDS011;61204;49.980;8.358;2022-07-09T12:25:45;1.70;;;1.08;;
72275;SDS011;61204;49.980;8.358;2022-07-09T12:28:11;2.20;;;1.20;;
72275;SDS011;61204;49.980;8.358;2022-07-09T12:30:36;2.03;;;1.30;;
72275;SDS011;61204;49.980;8.358;2022-07-09T12:33:02;1.48;;;1.02;;
72275;SDS011;61204;49.980;8.358;2022-07-09T12:35:28;2.20;;;1.05;;
72275;SDS011;61204;49.980;8.358;2022-07-09T12:37:53;2.75;;;1.50;;
72275;SDS011;61204;49.980;8.358;2022-07-09T12:40:22;2.88;;;1.55;;
72275;SDS011;61204;49.980;8.358;2022-07-09T12:42:48;3.17;;;1.55;;
72275;SDS011;61204;49.980;8.358;2022-07-09T12:45:14;1.95;;;1.20;;
72275;SDS011;61204;49.980;8.358;2022-07-09T12:47:39;2.13;;;1.17;;
72275;SDS011;61204;49.980;8.358;2022-07-09T12:50:05;1.55;;;1.10;;
72275;SDS011;61204;49.980;8.358;2022-07-09T12:52:32;1.50;;;0.95;;
72275;SDS011;61204;49.980;8.358;2022-07-09T12:54:59;1.95;;;1.05;;
72275;SDS011;61204;49.980;8.358;2022-07-09T12:57:26;1.42;;;0.90;;
72275;SDS011;61204;49.980;8.358;2022-07-09T12:59:53;3.67;;;1.20;;
72275;SDS011;61204;49.980;8.358;2022-07-09T13:02:18;1.92;;;1.13;;
72275;SDS011;61204;49.980;8.358;2022-07-09T13:04:44;4.18;;;1.45;;
72275;SDS011;61204;49.980;8.358;2022-07-09T13:07:10;1.83;;;1.02;;
72275;SDS011;61204;49.980;8.358;2022-07-09T13:09:36;3.33;;;0.98;;
72275;SDS011;61204;49.980;8.358;2022-07-09T13:12:02;1.60;;;1.15;;
72275;SDS011;61204;49.980;8.358;2022-07-09T13:14:28;2.15;;;1.10;;
72275;SDS011;61204;49.980;8.358;2022-07-09T13:16:54;1.38;;;0.95;;
72275;SDS011;61204;49.980;8.358;2022-07-09T13:19:20;1.83;;;1.00;;
72275;SDS011;61204;49.980;8.358;2022-07-09T13:21:45;2.55;;;0.85;;
72275;SDS011;61204;49.980;8.358;2022-07-09T13:24:11;2.53;;;1.00;;
72275;SDS011;61204;49.980;8.358;2022-07-09T13:26:36;1.23;;;0.90;;
72275;SDS011;61204;49.980;8.358;2022-07-09T13:29:02;1.67;;;1.00;;
72275;SDS011;61204;49.980;8.358;2022-07-09T13:31:28;2.55;;;1.20;;
72275;SDS011;61204;49.980;8.358;2022-07-09T13:33:56;2.63;;;0.93;;
72275;SDS011;61204;49.980;8.358;2022-07-09T13:36:21;1.10;;;0.90;;
72275;SDS011;61204;49.980;8.358;2022-07-09T13:38:47;1.67;;;1.02;;
72275;SDS011;61204;49.980;8.358;2022-07-09T13:41:12;1.20;;;0.95;;
72275;SDS011;61204;49.980;8.358;2022-07-09T13:43:38;3.33;;;1.38;;
72275;SDS011;61204;49.980;8.358;2022-07-09T13:46:04;1.77;;;1.10;;
72275;SDS011;61204;49.980;8.358;2022-07-09T13:48:32;1.42;;;0.98;;
72275;SDS011;61204;49.980;8.358;2022-07-09T13:50:57;2.33;;;1.10;;
72275;SDS011;61204;49.980;8.358;2022-07-09T13:53:23;2.05;;;1.20;;
72275;SDS011;61204;49.980;8.358;2022-07-09T13:55:48;4.40;;;1.20;;
72275;SDS011;61204;49.980;8.358;2022-07-09T13:58:14;4.72;;;1.60;;
72275;SDS011;61204;49.980;8.358;2022-07-09T14:00:40;2.85;;;1.30;;
72275;SDS011;61204;49.980;8.358;2022-07-09T14:03:05;2.13;;;1.08;;
72275;SDS011;61204;49.980;8.358;2022-07-09T14:05:31;1.58;;;0.90;;
72275;SDS011;61204;49.980;8.358;2022-07-09T14:07:57;1.58;;;1.20;;
72275;SDS011;61204;49.980;8.358;2022-07-09T14:10:25;2.40;;;0.98;;
72275;SDS011;61204;49.980;8.358;2022-07-09T14:12:51;2.75;;;0.88;;
72275;SDS011;61204;49.980;8.358;2022-07-09T14:15:17;3.75;;;1.25;;
72275;SDS011;61204;49.980;8.358;2022-07-09T14:17:42;2.15;;;1.10;;
72275;SDS011;61204;49.980;8.358;2022-07-09T14:20:09;1.75;;;1.10;;
72275;SDS011;61204;49.980;8.358;2022-07-09T14:22:36;2.30;;;1.25;;
72275;SDS011;61204;49.980;8.358;2022-07-09T14:25:02;2.65;;;1.17;;
72275;SDS011;61204;49.980;8.358;2022-07-09T14:27:28;2.08;;;0.93;;
72275;SDS011;61204;49.980;8.358;2022-07-09T14:29:54;1.70;;;0.98;;
72275;SDS011;61204;49.980;8.358;2022-07-09T14:32:20;1.90;;;1.30;;
72275;SDS011;61204;49.980;8.358;2022-07-09T14:34:46;1.40;;;1.00;;
72275;SDS011;61204;49.980;8.358;2022-07-09T14:37:11;1.83;;;1.33;;
72275;SDS011;61204;49.980;8.358;2022-07-09T14:39:37;2.35;;;1.30;;
72275;SDS011;61204;49.980;8.358;2022-07-09T14:42:03;3.20;;;1.40;;
72275;SDS011;61204;49.980;8.358;2022-07-09T14:44:28;1.98;;;0.95;;
72275;SDS011;61204;49.980;8.358;2022-07-09T14:46:55;2.10;;;1.13;;
72275;SDS011;61204;49.980;8.358;2022-07-09T14:49:23;1.95;;;1.45;;
72275;SDS011;61204;49.980;8.358;2022-07-09T14:51:52;1.45;;;1.30;;
72275;SDS011;61204;49.980;8.358;2022-07-09T14:54:20;1.75;;;1.40;;